• Join FlightAware (Why Join?)
  • Login
  • US Flag GB Flag 
06:47 EST


 

Airport Tracker/Info


-or-


 

Live Flight TrackerFlight Track Log ✈ SWA3943 ✈ 15-Apr-2013 ✈ KMCO - KCMH

Flight Track Log - Related Links

Times and Time Zones

All times are in EDT time to prevent confusion due to time zone crossing. See the SWA3943 flight status page for this flight to view local times or setup timezone preferences in your user account.

Time Position Orientation Groundspeed Altitude Reporting Facility
EDT Latitude Longitude Course Direction KTS MPH feet Rate Location/Type
18:20 28.4333 -81.3000 24° Northeast 162 186 900  Level Orlando TRACON
18:21 28.5000 -81.2667 24° Northeast 223 257 3,300 2,165 Climbing Orlando TRACON
18:22 28.5667 -81.2333 24° Northeast 279 321 5,700 3,250 Climbing Orlando TRACON
18:23 28.6500 -81.2333 360° North 274 315 9,800 2,845 Climbing Orlando TRACON
18:25 28.7878 -81.3692 319° Northwest 319 367 14,900 2,474 Climbing Jacksonville Center
18:26 28.8597 -81.4511 315° West 345 397 17,800 2,700 Climbing Jacksonville Center
18:27 28.9461 -81.5186 326° Northwest 363 418 20,300 2,450 Climbing Jacksonville Center
18:28 29.0569 -81.5386 351° North 383 441 22,700 2,350 Climbing Jacksonville Center
18:29 29.1697 -81.5536 353° North 389 448 25,000 2,250 Climbing Jacksonville Center
18:30 29.2972 -81.5733 352° North 409 471 27,200 2,050 Climbing Jacksonville Center
18:31 29.4164 -81.5861 355° North 423 487 29,100 1,800 Climbing Jacksonville Center
18:32 29.5375 -81.6011 354° North 428 493 30,800 1,800 Climbing Jacksonville Center
18:33 29.6631 -81.6186 353° North 438 504 32,700 1,650 Climbing Jacksonville Center
18:34 29.7842 -81.6339 354° North 443 510 34,100 1,600 Climbing Jacksonville Center
18:35 29.9075 -81.6489 354° North 443 510 35,900 1,750 Climbing Jacksonville Center
18:36 30.0247 -81.6642 354° North 443 510 37,600 1,250 Climbing Jacksonville Center
18:37 30.1417 -81.6797 353° North 432 497 38,400 700 Climbing Jacksonville Center
18:38 30.2608 -81.6900 356° North 425 489 39,000 300 Climbing Jacksonville Center
18:39 30.3842 -81.7031 355° North 430 495 39,000  Level Jacksonville Center
18:40 30.4886 -81.7211 352° North 430 495 39,000  Level Jacksonville Center
18:41 30.6142 -81.7411 352° North 430 495 39,000  Level Jacksonville Center
18:42 30.7311 -81.7567 353° North 430 495 39,000  Level Jacksonville Center
18:43 30.8483 -81.7747 352° North 423 487 39,000  Level Jacksonville Center
18:44 30.9653 -81.7903 353° North 428 493 39,000  Level Jacksonville Center
18:45 31.0803 -81.8058 353° North 428 493 39,000  Level Jacksonville Center
18:46 31.1994 -81.8214 354° North 428 493 39,000  Level Jacksonville Center
18:47 31.3144 -81.8372 353° North 428 493 39,000  Level Jacksonville Center
18:48 31.4419 -81.8503 355° North 417 480 39,000  Level Jacksonville Center
18:49 31.5547 -81.8661 353° North 412 474 39,000  Level Jacksonville Center
18:51 31.7572 -81.8944 353° North 425 489 39,000  Level Atlanta Center
18:52 31.8722 -81.9089 354° North 420 483 39,000  Level Atlanta Center
18:53 31.9853 -81.9256 353° North 415 478 39,000  Level Atlanta Center
18:54 32.0981 -81.9403 354° North 410 472 39,000  Level Atlanta Center
18:55 32.2175 -81.9569 353° North 415 478 39,000  Level Atlanta Center
18:56 32.3200 -81.9694 354° North 415 478 39,000  Level Atlanta Center
18:57 32.4350 -81.9864 353° North 415 478 39,000  Level Atlanta Center
18:58 32.5542 -82.0008 354° North 420 483 39,000  Level Atlanta Center
18:59 32.6672 -82.0181 353° North 420 483 39,000  Level Atlanta Center
19:00 32.7864 -82.0350 353° North 420 483 39,000  Level Atlanta Center
19:01 32.9056 -82.0497 354° North 425 489 39,000  Level Atlanta Center
19:02 33.0208 -82.0667 353° North 425 489 39,000  Level Atlanta Center
19:03 33.1378 -82.0814 354° North 425 489 39,000  Level Atlanta Center
19:04 33.2550 -82.0986 353° North 425 489 39,000  Level Atlanta Center
19:05 33.3722 -82.1161 353° North 425 489 39,000  Level Atlanta Center
19:06 33.4892 -82.1308 354° North 425 489 39,000  Level Atlanta Center
19:07 33.6211 -82.1478 354° North 432 497 39,000  Level Atlanta Center
19:08 33.7422 -82.1528 358° North 432 497 39,000  Level Atlanta Center
19:09 33.8672 -82.1325 North 432 497 39,000  Level Atlanta Center
19:10 33.9900 -82.1122 North 439 505 39,000  Level Atlanta Center
19:11 34.1128 -82.0894 North 445 512 39,000  Level Atlanta Center
19:12 34.2356 -82.0714 North 445 512 39,000  Level Atlanta Center
19:13 34.3561 -82.0458 10° North 445 512 39,000  Level Atlanta Center
19:14 34.4792 -82.0278 North 440 506 39,000  Level Atlanta Center
19:15 34.5914 -82.0075 North 449 517 39,000  Level Atlanta Center
19:16 34.7119 -81.9844 North 444 511 39,000  Level Atlanta Center
19:17 34.8328 -81.9611 North 444 511 39,000  Level Atlanta Center
19:18 34.9575 -81.9456 North 444 511 39,000  Level Atlanta Center
19:19 35.0806 -81.9297 North 439 505 39,000  Level Atlanta Center
19:20 35.2036 -81.9239 North 445 512 39,000  Level Atlanta Center
19:21 35.3369 -81.9181 North 438 504 39,000  Level Atlanta Center
19:22 35.4578 -81.9150 North 438 504 39,000  Level Atlanta Center
19:23 35.5786 -81.9067 North 438 504 39,000  Level Atlanta Center
19:24 35.7017 -81.9008 North 438 504 39,000  Level Atlanta Center
19:25 35.8225 -81.8950 North 438 504 39,000  Level Atlanta Center
19:26 35.9436 -81.8894 North 432 497 39,000  Level Atlanta Center
19:27 36.0478 -81.8842 North 432 497 39,000  Level Atlanta Center
19:28 36.1706 -81.8781 North 432 497 39,000  Level Atlanta Center
19:29 36.2936 -81.8697 North 438 504 39,000  Level Atlanta Center
19:30 36.4164 -81.8639 North 438 504 39,000  Level Atlanta Center
19:31 36.5478 -81.8550 North 438 504 39,000  Level Atlanta Center
19:33 36.7431 -81.8475 North 439 505 39,000  Level Indianapolis Center
19:34 36.8631 -81.8442 North 433 498 39,000  Level Indianapolis Center
19:35 36.9750 -81.8783 346° North 417 480 39,000  Level Indianapolis Center
19:36 37.0892 -81.9114 347° North 420 483 39,000 -488 Level Indianapolis Center
19:37 37.2031 -81.9444 347° North 420 483 38,000 -484 Descending Indianapolis Center
19:38 37.3386 -81.9858 346° North 427 491 38,000  Level Indianapolis Center
19:39 37.4528 -82.0189 347° North 424 488 38,000 -390 Level Indianapolis Center
19:40 37.5694 -82.0511 348° North 426 490 37,200 -1,065 Descending Indianapolis Center
19:41 37.6908 -82.0550 359° North 433 498 35,800 -1,610 Descending Indianapolis Center
19:42 37.8153 -82.0589 359° North 444 511 33,900 -1,951 Descending Indianapolis Center
19:43 37.9514 -82.0628 359° North 453 521 31,800 -1,403 Descending Indianapolis Center
19:44 38.0764 -82.0650 359° North 448 516 31,000 -390 Descending Indianapolis Center
19:45 38.1994 -82.0692 358° North 442 509 31,000  Level Indianapolis Center
19:46 38.3222 -82.0733 358° North 439 505 31,000  Level Indianapolis Center
19:47 38.4461 -82.0764 359° North 442 509 31,000 -244 Level Indianapolis Center
19:48 38.5703 -82.0800 359° North 442 509 30,500 -1,366 Descending Indianapolis Center
19:49 38.6908 -82.0836 359° North 430 495 28,200 -2,244 Descending Indianapolis Center
19:50 38.8072 -82.0858 359° North 417 480 25,900 -2,049 Descending Indianapolis Center
19:51 38.9389 -82.0978 356° North 393 452 24,000 -1,742 Descending Indianapolis Center
19:52 39.0389 -82.1394 342° North 379 436 22,300 -1,854 Descending Indianapolis Center
19:53 39.1369 -82.1789 343° North 369 425 20,200 -2,000 Descending Indianapolis Center
19:54 39.2328 -82.2161 343° North 360 414 18,200 -1,985 Descending Indianapolis Center
19:56 39.3458 -82.2619 343° North 341 392 15,700 -1,951 Descending Indianapolis Center
19:56 39.4142 -82.2886 343° North 339 390 14,200 -2,051 Descending Indianapolis Center
19:57 39.4681 -82.3125 341° North 332 382 13,000 -2,032 Descending Indianapolis Center
19:57 39.4964 -82.3317 332° Northwest 329 379 12,100 -1,889 Descending Indianapolis Center
19:58 39.5317 -82.3650 324° Northwest 316 364 11,300 -1,082 Descending Indianapolis Center
19:58 39.5786 -82.4036 328° Northwest 305 351 11,000 -295 Descending Indianapolis Center
19:59 39.6011 -82.4239 325° Northwest 278 320 11,000 -968 Level Indianapolis Center
19:59 39.6417 -82.4569 328° Northwest 272 313 10,000 -1,433 Descending Indianapolis Center
20:00 39.6686 -82.4825 324° Northwest 265 305 9,400 -1,377 Descending Indianapolis Center
20:01 39.7031 -82.5108 328° Northwest 265 305 8,600 -1,400 Descending Indianapolis Center
20:01 39.7300 -82.5350 325° Northwest 264 304 8,000 -1,548 Descending Indianapolis Center
20:02 39.7650 -82.5636 328° Northwest 265 305 7,000 -1,701 Descending Indianapolis Center
20:02 39.8017 -82.5944 327° Northwest 265 305 6,100 -1,672 Descending Indianapolis Center
20:03 39.8278 -82.6172 326° Northwest 268 308 5,300 -1,672 Descending Indianapolis Center
20:03 39.8650 -82.6500 326° Northwest 279 321 4,400 -1,548 Descending Indianapolis Center
20:04 39.8933 -82.6742 327° Northwest 277 319 3,700 -1,109 Descending Indianapolis Center
20:05 39.9586 -82.7308 326° Northwest 279 321 2,700 -634 Descending Indianapolis Center
20:06 39.9889 -82.7889 304° West 235 270 2,400 -683 Descending Indianapolis Center
20:07 39.9919 -82.8439 274° West 176 203 1,300 -634 Descending Indianapolis Center
20:08 39.9953 -82.8975 275° West 171 197 1,100 -194 Descending Indianapolis Center